This is the latest recevied weather packets stored in our database for station/object KG5WBN. If no packets are shown the sender has not sent any weather packets the latest 10 day(s).
| Time | Temp. | Humidity | Pressure | Rain* | Wind** | Luminosity | Snow |
|---|---|---|---|---|---|---|---|
| 1787681444 | 33.89° C | 43% | 1015.9 hPa | 0 mm | - | 377 W/m² | - |
| 1787681139 | 33.33° C | 43% | 1015.9 hPa | 0 mm | - | 360 W/m² | - |
| 1787680834 | 32.78° C | 44% | 1015.6 hPa | 0 mm | - | 361 W/m² | - |
| 1787680529 | 32.78° C | 49% | 1015.9 hPa | 0 mm | - | 371 W/m² | - |
| 1787680227 | 33.33° C | 46% | 1015.6 hPa | 0 mm | - | 367 W/m² | - |
| 1787679927 | 32.78° C | 49% | 1015.9 hPa | 0 mm | - | 331 W/m² | - |
| 1787679621 | 31.67° C | 51% | 1015.9 hPa | 0 mm | - | 137 W/m² | - |
| 1787679317 | 31.67° C | 51% | 1016.3 hPa | 0 mm | - | 146 W/m² | - |
| 1787679013 | 31.67° C | 51% | 1016.3 hPa | 0 mm | - | 167 W/m² | - |
| 1787678713 | 32.22° C | 54% | 1016.3 hPa | 0 mm | - | 381 W/m² | - |
| 1787678407 | 31.67° C | 53% | 1016.3 hPa | 0 mm | - | 351 W/m² | - |
| 1787678103 | 31.67° C | 51% | 1016.3 hPa | 0 mm | - | 80 W/m² | - |
| 1787677802 | 31.67° C | 52% | 1016.3 hPa | 0 mm | - | 88 W/m² | - |
| 1787677497 | 31.67° C | 52% | 1016.3 hPa | 0 mm | - | 165 W/m² | - |
| 1787677196 | 31.67° C | 52% | 1016.6 hPa | 0 mm | - | 367 W/m² | - |
| 1787676896 | 31.67° C | 52% | 1016.3 hPa | 0 mm | - | 379 W/m² | - |
| 1787676596 | 31.11° C | 53% | 1016.6 hPa | 0 mm | - | 378 W/m² | - |
| 1787676293 | 31.11° C | 53% | 1016.6 hPa | 0 mm | - | 156 W/m² | - |
| 1787675988 | 31.11° C | 61% | 1016.9 hPa | 0 mm | - | 150 W/m² | - |
| 1787675684 | 31.67° C | 60% | 1016.9 hPa | 0 mm | - | 124 W/m² | - |
| 1787675383 | 32.22° C | 61% | 1017.3 hPa | 0 mm | - | 95 W/m² | - |
| 1787675078 | 32.22° C | 59% | 1016.9 hPa | 0 mm | - | 293 W/m² | - |
| 1787674772 | 32.22° C | 60% | 1016.9 hPa | 0 mm | - | 113 W/m² | - |
| 1787674468 | 31.67° C | 60% | 1016.9 hPa | 0 mm | - | 320 W/m² | - |
| 1787674163 | 32.22° C | 58% | 1016.9 hPa | 0 mm | - | 102 W/m² | - |
* Rain latest hour (hover to see other rain measurements)
** Current wind speed in m/s (hover to see current wind gust speed)